sensor_id;sensor_type;location;lat;lon;timestamp;temperature;humidity
3628;DHT22;1830;49.000;12.074;2023-03-14T00:00:06;9.60;99.90
3628;DHT22;1830;49.000;12.074;2023-03-14T00:02:33;9.70;99.90
3628;DHT22;1830;49.000;12.074;2023-03-14T00:05:02;9.50;99.90
3628;DHT22;1830;49.000;12.074;2023-03-14T00:07:32;9.40;99.90
3628;DHT22;1830;49.000;12.074;2023-03-14T00:10:01;9.30;99.90
3628;DHT22;1830;49.000;12.074;2023-03-14T00:12:31;9.30;99.90
3628;DHT22;1830;49.000;12.074;2023-03-14T00:14:58;9.30;99.90
3628;DHT22;1830;49.000;12.074;2023-03-14T00:17:26;9.20;99.90
3628;DHT22;1830;49.000;12.074;2023-03-14T00:19:53;9.20;99.90
3628;DHT22;1830;49.000;12.074;2023-03-14T00:22:20;9.20;99.90
3628;DHT22;1830;49.000;12.074;2023-03-14T00:24:47;9.20;99.90
3628;DHT22;1830;49.000;12.074;2023-03-14T00:27:13;9.20;99.90
3628;DHT22;1830;49.000;12.074;2023-03-14T00:29:42;9.10;99.90
3628;DHT22;1830;49.000;12.074;2023-03-14T00:32:09;9.10;99.90
3628;DHT22;1830;49.000;12.074;2023-03-14T00:34:36;9.00;99.90
3628;DHT22;1830;49.000;12.074;2023-03-14T00:37:02;9.10;99.90
3628;DHT22;1830;49.000;12.074;2023-03-14T00:39:29;9.10;99.90
3628;DHT22;1830;49.000;12.074;2023-03-14T00:41:56;9.00;99.90
3628;DHT22;1830;49.000;12.074;2023-03-14T00:44:23;8.90;99.90
3628;DHT22;1830;49.000;12.074;2023-03-14T00:46:51;9.00;99.90
3628;DHT22;1830;49.000;12.074;2023-03-14T00:49:18;9.00;99.90
3628;DHT22;1830;49.000;12.074;2023-03-14T00:51:45;9.10;99.90
3628;DHT22;1830;49.000;12.074;2023-03-14T00:54:12;9.10;99.90
3628;DHT22;1830;49.000;12.074;2023-03-14T00:56:39;9.10;99.90
3628;DHT22;1830;49.000;12.074;2023-03-14T00:59:05;9.10;99.90
3628;DHT22;1830;49.000;12.074;2023-03-14T01:01:32;9.10;99.90
3628;DHT22;1830;49.000;12.074;2023-03-14T01:04:01;9.10;99.90
3628;DHT22;1830;49.000;12.074;2023-03-14T01:06:29;9.10;99.90
3628;DHT22;1830;49.000;12.074;2023-03-14T01:08:58;9.10;99.90
3628;DHT22;1830;49.000;12.074;2023-03-14T01:11:28;9.10;99.90
3628;DHT22;1830;49.000;12.074;2023-03-14T01:13:55;9.20;99.90
3628;DHT22;1830;49.000;12.074;2023-03-14T01:16:24;9.20;99.90
3628;DHT22;1830;49.000;12.074;2023-03-14T01:18:51;9.20;99.90
3628;DHT22;1830;49.000;12.074;2023-03-14T01:21:21;9.20;99.90
3628;DHT22;1830;49.000;12.074;2023-03-14T01:23:49;9.20;99.90
3628;DHT22;1830;49.000;12.074;2023-03-14T01:26:17;9.20;99.90
3628;DHT22;1830;49.000;12.074;2023-03-14T01:28:45;9.20;99.90
3628;DHT22;1830;49.000;12.074;2023-03-14T01:31:13;9.20;99.90
3628;DHT22;1830;49.000;12.074;2023-03-14T01:33:41;9.30;99.90
3628;DHT22;1830;49.000;12.074;2023-03-14T01:36:09;9.30;99.90
3628;DHT22;1830;49.000;12.074;2023-03-14T01:38:38;9.20;99.90
3628;DHT22;1830;49.000;12.074;2023-03-14T01:41:06;9.20;99.90
3628;DHT22;1830;49.000;12.074;2023-03-14T01:43:34;9.20;99.90
3628;DHT22;1830;49.000;12.074;2023-03-14T01:46:20;9.20;99.90
3628;DHT22;1830;49.000;12.074;2023-03-14T01:48:58;9.20;99.90
3628;DHT22;1830;49.000;12.074;2023-03-14T01:51:30;9.20;99.90
3628;DHT22;1830;49.000;12.074;2023-03-14T01:54:04;9.20;99.90
3628;DHT22;1830;49.000;12.074;2023-03-14T01:56:33;9.10;99.90
3628;DHT22;1830;49.000;12.074;2023-03-14T01:59:01;9.10;99.90
3628;DHT22;1830;49.000;12.074;2023-03-14T02:01:30;9.20;99.90
3628;DHT22;1830;49.000;12.074;2023-03-14T02:03:59;9.10;99.90
3628;DHT22;1830;49.000;12.074;2023-03-14T02:06:32;9.00;99.90
3628;DHT22;1830;49.000;12.074;2023-03-14T05:37:11;7.90;99.90
3628;DHT22;1830;49.000;12.074;2023-03-14T05:39:40;8.00;99.90
3628;DHT22;1830;49.000;12.074;2023-03-14T05:42:55;7.90;99.90
3628;DHT22;1830;49.000;12.074;2023-03-14T05:45:39;7.90;99.90
3628;DHT22;1830;49.000;12.074;2023-03-14T05:48:10;7.90;99.90
3628;DHT22;1830;49.000;12.074;2023-03-14T05:50:40;7.90;99.90
3628;DHT22;1830;49.000;12.074;2023-03-14T05:53:29;7.90;99.90
3628;DHT22;1830;49.000;12.074;2023-03-14T05:56:04;8.00;99.90
3628;DHT22;1830;49.000;12.074;2023-03-14T05:58:45;7.90;99.90
3628;DHT22;1830;49.000;12.074;2023-03-14T06:01:24;8.00;99.90
3628;DHT22;1830;49.000;12.074;2023-03-14T06:03:53;7.90;99.90
3628;DHT22;1830;49.000;12.074;2023-03-14T06:06:26;8.00;99.90
3628;DHT22;1830;49.000;12.074;2023-03-14T06:09:01;8.00;99.90
3628;DHT22;1830;49.000;12.074;2023-03-14T06:11:52;8.00;99.90
3628;DHT22;1830;49.000;12.074;2023-03-14T06:14:23;8.00;99.90
3628;DHT22;1830;49.000;12.074;2023-03-14T06:16:51;8.00;99.90
3628;DHT22;1830;49.000;12.074;2023-03-14T06:19:29;8.00;99.90
3628;DHT22;1830;49.000;12.074;2023-03-14T06:21:57;8.00;99.90
3628;DHT22;1830;49.000;12.074;2023-03-14T06:24:25;8.00;99.90
3628;DHT22;1830;49.000;12.074;2023-03-14T06:52:45;8.10;99.90
3628;DHT22;1830;49.000;12.074;2023-03-14T06:55:13;8.20;99.90
3628;DHT22;1830;49.000;12.074;2023-03-14T06:57:40;8.20;99.90
3628;DHT22;1830;49.000;12.074;2023-03-14T07:00:08;8.20;99.90
3628;DHT22;1830;49.000;12.074;2023-03-14T07:02:35;8.20;99.90
3628;DHT22;1830;49.000;12.074;2023-03-14T07:05:02;8.20;99.90
3628;DHT22;1830;49.000;12.074;2023-03-14T07:07:28;8.20;99.90
3628;DHT22;1830;49.000;12.074;2023-03-14T07:09:57;8.20;99.90
3628;DHT22;1830;49.000;12.074;2023-03-14T07:12:23;8.20;99.90
3628;DHT22;1830;49.000;12.074;2023-03-14T07:14:50;8.20;99.90
3628;DHT22;1830;49.000;12.074;2023-03-14T07:17:17;8.20;99.90
3628;DHT22;1830;49.000;12.074;2023-03-14T07:19:43;8.20;99.90
3628;DHT22;1830;49.000;12.074;2023-03-14T07:22:10;8.20;99.90
3628;DHT22;1830;49.000;12.074;2023-03-14T07:24:37;8.20;99.90
3628;DHT22;1830;49.000;12.074;2023-03-14T07:27:05;8.30;99.90
3628;DHT22;1830;49.000;12.074;2023-03-14T07:29:32;8.30;99.90
3628;DHT22;1830;49.000;12.074;2023-03-14T07:31:58;8.30;99.90
3628;DHT22;1830;49.000;12.074;2023-03-14T07:34:25;8.30;99.90
3628;DHT22;1830;49.000;12.074;2023-03-14T07:36:52;8.30;99.90
3628;DHT22;1830;49.000;12.074;2023-03-14T07:39:19;8.30;99.90
3628;DHT22;1830;49.000;12.074;2023-03-14T07:41:45;8.30;99.90
3628;DHT22;1830;49.000;12.074;2023-03-14T07:44:13;8.40;99.90
3628;DHT22;1830;49.000;12.074;2023-03-14T07:46:40;8.40;99.90
3628;DHT22;1830;49.000;12.074;2023-03-14T07:49:07;8.40;99.90
3628;DHT22;1830;49.000;12.074;2023-03-14T07:51:34;8.40;99.90
3628;DHT22;1830;49.000;12.074;2023-03-14T07:54:00;8.50;99.90
3628;DHT22;1830;49.000;12.074;2023-03-14T07:56:27;8.50;99.90
3628;DHT22;1830;49.000;12.074;2023-03-14T07:58:54;8.40;99.90
3628;DHT22;1830;49.000;12.074;2023-03-14T08:01:22;8.50;99.90
3628;DHT22;1830;49.000;12.074;2023-03-14T08:03:48;8.40;99.90
3628;DHT22;1830;49.000;12.074;2023-03-14T08:06:15;8.40;99.90
3628;DHT22;1830;49.000;12.074;2023-03-14T08:08:42;8.40;99.90
3628;DHT22;1830;49.000;12.074;2023-03-14T08:11:09;8.40;99.90
3628;DHT22;1830;49.000;12.074;2023-03-14T08:13:36;8.50;99.90
3628;DHT22;1830;49.000;12.074;2023-03-14T08:16:03;8.50;99.90
3628;DHT22;1830;49.000;12.074;2023-03-14T08:18:31;8.50;99.90
3628;DHT22;1830;49.000;12.074;2023-03-14T08:20:58;8.60;99.90
3628;DHT22;1830;49.000;12.074;2023-03-14T08:23:25;8.60;99.90
3628;DHT22;1830;49.000;12.074;2023-03-14T08:25:52;8.70;99.90
3628;DHT22;1830;49.000;12.074;2023-03-14T08:28:19;8.70;99.90
3628;DHT22;1830;49.000;12.074;2023-03-14T08:30:46;8.70;99.90
3628;DHT22;1830;49.000;12.074;2023-03-14T08:33:12;8.70;99.90
3628;DHT22;1830;49.000;12.074;2023-03-14T08:35:41;8.80;99.90
3628;DHT22;1830;49.000;12.074;2023-03-14T08:38:08;8.90;99.90
3628;DHT22;1830;49.000;12.074;2023-03-14T08:40:35;8.80;99.90
3628;DHT22;1830;49.000;12.074;2023-03-14T08:43:02;8.90;99.90
3628;DHT22;1830;49.000;12.074;2023-03-14T08:45:28;9.00;99.90
3628;DHT22;1830;49.000;12.074;2023-03-14T08:47:55;9.00;99.90
3628;DHT22;1830;49.000;12.074;2023-03-14T08:50:23;9.10;99.90
3628;DHT22;1830;49.000;12.074;2023-03-14T08:52:52;9.10;99.90
3628;DHT22;1830;49.000;12.074;2023-03-14T08:55:18;9.10;99.90
3628;DHT22;1830;49.000;12.074;2023-03-14T08:57:45;9.20;99.90
3628;DHT22;1830;49.000;12.074;2023-03-14T09:00:13;9.20;99.90
3628;DHT22;1830;49.000;12.074;2023-03-14T09:02:40;9.20;99.90
3628;DHT22;1830;49.000;12.074;2023-03-14T09:05:08;9.20;99.90
3628;DHT22;1830;49.000;12.074;2023-03-14T09:07:35;9.30;99.90
3628;DHT22;1830;49.000;12.074;2023-03-14T09:10:04;9.40;99.90
3628;DHT22;1830;49.000;12.074;2023-03-14T09:12:31;9.50;99.90
3628;DHT22;1830;49.000;12.074;2023-03-14T09:14:58;9.40;99.90
3628;DHT22;1830;49.000;12.074;2023-03-14T09:17:25;9.50;99.90
3628;DHT22;1830;49.000;12.074;2023-03-14T09:19:52;9.60;99.90
3628;DHT22;1830;49.000;12.074;2023-03-14T09:22:19;9.60;99.90
3628;DHT22;1830;49.000;12.074;2023-03-14T09:24:46;9.70;99.90
3628;DHT22;1830;49.000;12.074;2023-03-14T09:27:14;9.70;99.90
3628;DHT22;1830;49.000;12.074;2023-03-14T09:29:41;9.70;99.90
3628;DHT22;1830;49.000;12.074;2023-03-14T09:32:07;9.70;99.90
3628;DHT22;1830;49.000;12.074;2023-03-14T09:34:34;9.70;99.90
3628;DHT22;1830;49.000;12.074;2023-03-14T09:37:01;9.70;99.90
3628;DHT22;1830;49.000;12.074;2023-03-14T09:39:27;9.80;99.90
3628;DHT22;1830;49.000;12.074;2023-03-14T09:41:56;9.90;99.90
3628;DHT22;1830;49.000;12.074;2023-03-14T09:44:28;9.80;99.90
3628;DHT22;1830;49.000;12.074;2023-03-14T09:46:58;10.00;99.90
3628;DHT22;1830;49.000;12.074;2023-03-14T09:49:28;10.10;99.90
3628;DHT22;1830;49.000;12.074;2023-03-14T09:51:58;10.10;99.90
3628;DHT22;1830;49.000;12.074;2023-03-14T09:54:35;10.10;99.90
3628;DHT22;1830;49.000;12.074;2023-03-14T09:57:04;10.00;99.90
3628;DHT22;1830;49.000;12.074;2023-03-14T09:59:34;10.10;99.90
3628;DHT22;1830;49.000;12.074;2023-03-14T10:02:13;10.20;99.90
3628;DHT22;1830;49.000;12.074;2023-03-14T10:04:40;10.10;99.90
3628;DHT22;1830;49.000;12.074;2023-03-14T10:07:13;10.20;99.90
3628;DHT22;1830;49.000;12.074;2023-03-14T10:09:43;10.20;99.90
3628;DHT22;1830;49.000;12.074;2023-03-14T10:12:10;10.20;99.90
3628;DHT22;1830;49.000;12.074;2023-03-14T10:14:46;10.30;99.90
3628;DHT22;1830;49.000;12.074;2023-03-14T10:17:13;10.10;99.90
3628;DHT22;1830;49.000;12.074;2023-03-14T10:19:51;10.20;99.90
3628;DHT22;1830;49.000;12.074;2023-03-14T10:22:19;10.30;99.90
3628;DHT22;1830;49.000;12.074;2023-03-14T10:24:47;10.30;99.90
3628;DHT22;1830;49.000;12.074;2023-03-14T10:27:19;10.30;99.90
3628;DHT22;1830;49.000;12.074;2023-03-14T10:29:53;10.40;99.90
3628;DHT22;1830;49.000;12.074;2023-03-14T10:32:22;10.60;99.90
3628;DHT22;1830;49.000;12.074;2023-03-14T10:35:07;10.90;99.90
3628;DHT22;1830;49.000;12.074;2023-03-14T10:37:35;10.90;99.90
3628;DHT22;1830;49.000;12.074;2023-03-14T10:40:03;10.90;99.90
3628;DHT22;1830;49.000;12.074;2023-03-14T10:42:32;10.90;99.90
3628;DHT22;1830;49.000;12.074;2023-03-14T10:45:03;11.00;99.90
3628;DHT22;1830;49.000;12.074;2023-03-14T10:47:33;11.00;99.90
3628;DHT22;1830;49.000;12.074;2023-03-14T10:50:22;11.00;99.90
3628;DHT22;1830;49.000;12.074;2023-03-14T10:52:49;11.10;99.90
3628;DHT22;1830;49.000;12.074;2023-03-14T10:55:18;11.20;99.90
3628;DHT22;1830;49.000;12.074;2023-03-14T10:57:45;11.30;99.90
3628;DHT22;1830;49.000;12.074;2023-03-14T11:00:17;11.30;99.90
3628;DHT22;1830;49.000;12.074;2023-03-14T11:02:53;11.30;99.90
3628;DHT22;1830;49.000;12.074;2023-03-14T11:05:29;11.30;99.90
3628;DHT22;1830;49.000;12.074;2023-03-14T11:08:01;11.50;99.90
3628;DHT22;1830;49.000;12.074;2023-03-14T11:10:32;11.50;99.90
3628;DHT22;1830;49.000;12.074;2023-03-14T11:13:09;11.40;99.90
3628;DHT22;1830;49.000;12.074;2023-03-14T11:15:49;11.40;99.90
3628;DHT22;1830;49.000;12.074;2023-03-14T11:18:46;11.30;99.90
3628;DHT22;1830;49.000;12.074;2023-03-14T11:21:18;11.20;99.90
3628;DHT22;1830;49.000;12.074;2023-03-14T11:23:55;11.10;99.90
3628;DHT22;1830;49.000;12.074;2023-03-14T11:26:30;11.10;99.90
3628;DHT22;1830;49.000;12.074;2023-03-14T11:29:02;10.90;99.90
3628;DHT22;1830;49.000;12.074;2023-03-14T11:31:38;10.90;99.90
3628;DHT22;1830;49.000;12.074;2023-03-14T11:34:13;10.90;99.90
3628;DHT22;1830;49.000;12.074;2023-03-14T11:36:46;10.90;99.90
3628;DHT22;1830;49.000;12.074;2023-03-14T11:39:16;11.00;99.90
3628;DHT22;1830;49.000;12.074;2023-03-14T11:41:46;11.00;99.90
3628;DHT22;1830;49.000;12.074;2023-03-14T11:44:18;11.00;99.90
3628;DHT22;1830;49.000;12.074;2023-03-14T11:46:50;11.10;99.90
3628;DHT22;1830;49.000;12.074;2023-03-14T11:49:27;11.20;99.90
3628;DHT22;1830;49.000;12.074;2023-03-14T11:51:59;11.30;99.90
3628;DHT22;1830;49.000;12.074;2023-03-14T11:54:33;11.50;99.90
3628;DHT22;1830;49.000;12.074;2023-03-14T11:57:10;11.60;99.90
3628;DHT22;1830;49.000;12.074;2023-03-14T11:59:45;11.60;99.90
3628;DHT22;1830;49.000;12.074;2023-03-14T12:02:19;11.70;99.90
3628;DHT22;1830;49.000;12.074;2023-03-14T12:05:25;12.00;99.90
3628;DHT22;1830;49.000;12.074;2023-03-14T12:08:19;12.20;99.90
3628;DHT22;1830;49.000;12.074;2023-03-14T12:10:50;12.30;99.90
3628;DHT22;1830;49.000;12.074;2023-03-14T12:13:18;12.40;99.90
3628;DHT22;1830;49.000;12.074;2023-03-14T12:15:48;12.60;99.90
3628;DHT22;1830;49.000;12.074;2023-03-14T12:18:21;12.50;99.90
3628;DHT22;1830;49.000;12.074;2023-03-14T12:20:55;12.50;99.90
3628;DHT22;1830;49.000;12.074;2023-03-14T12:23:34;12.30;99.90
3628;DHT22;1830;49.000;12.074;2023-03-14T12:26:14;12.20;99.90
3628;DHT22;1830;49.000;12.074;2023-03-14T12:28:43;12.30;99.90
3628;DHT22;1830;49.000;12.074;2023-03-14T12:31:36;12.20;99.90
3628;DHT22;1830;49.000;12.074;2023-03-14T12:34:26;12.20;99.90
3628;DHT22;1830;49.000;12.074;2023-03-14T12:37:05;12.10;99.90
3628;DHT22;1830;49.000;12.074;2023-03-14T12:39:43;12.00;99.90
3628;DHT22;1830;49.000;12.074;2023-03-14T12:42:14;12.00;99.90
3628;DHT22;1830;49.000;12.074;2023-03-14T12:44:47;11.90;99.90
3628;DHT22;1830;49.000;12.074;2023-03-14T12:47:52;11.90;99.90
3628;DHT22;1830;49.000;12.074;2023-03-14T12:50:33;12.00;99.90
3628;DHT22;1830;49.000;12.074;2023-03-14T12:53:28;12.00;99.90
3628;DHT22;1830;49.000;12.074;2023-03-14T12:56:02;12.00;99.90
3628;DHT22;1830;49.000;12.074;2023-03-14T12:58:35;11.80;99.90
3628;DHT22;1830;49.000;12.074;2023-03-14T13:01:04;11.90;99.90
3628;DHT22;1830;49.000;12.074;2023-03-14T13:03:45;12.00;99.90
3628;DHT22;1830;49.000;12.074;2023-03-14T13:06:50;12.00;99.90
3628;DHT22;1830;49.000;12.074;2023-03-14T13:12:22;11.90;99.90
3628;DHT22;1830;49.000;12.074;2023-03-14T13:15:00;11.80;99.90
3628;DHT22;1830;49.000;12.074;2023-03-14T13:17:33;11.80;99.90
3628;DHT22;1830;49.000;12.074;2023-03-14T13:20:11;11.80;99.90
3628;DHT22;1830;49.000;12.074;2023-03-14T13:22:49;11.90;99.90
3628;DHT22;1830;49.000;12.074;2023-03-14T13:28:34;11.50;99.90
3628;DHT22;1830;49.000;12.074;2023-03-14T13:31:05;11.40;99.90
3628;DHT22;1830;49.000;12.074;2023-03-14T13:33:34;11.50;99.90
3628;DHT22;1830;49.000;12.074;2023-03-14T13:36:03;11.40;99.90
3628;DHT22;1830;49.000;12.074;2023-03-14T13:38:34;11.30;99.90
3628;DHT22;1830;49.000;12.074;2023-03-14T13:41:06;11.40;99.90
3628;DHT22;1830;49.000;12.074;2023-03-14T13:43:36;11.70;99.90
3628;DHT22;1830;49.000;12.074;2023-03-14T13:46:11;11.70;99.90
3628;DHT22;1830;49.000;12.074;2023-03-14T13:48:43;11.60;99.90
3628;DHT22;1830;49.000;12.074;2023-03-14T13:51:15;11.60;99.90
3628;DHT22;1830;49.000;12.074;2023-03-14T13:57:12;11.60;99.90
3628;DHT22;1830;49.000;12.074;2023-03-14T14:00:16;11.60;99.90
3628;DHT22;1830;49.000;12.074;2023-03-14T14:02:50;11.40;99.90
3628;DHT22;1830;49.000;12.074;2023-03-14T14:05:26;11.30;99.90
3628;DHT22;1830;49.000;12.074;2023-03-14T14:08:09;11.20;99.90
3628;DHT22;1830;49.000;12.074;2023-03-14T14:10:37;11.00;99.90
3628;DHT22;1830;49.000;12.074;2023-03-14T14:13:10;10.90;99.90
3628;DHT22;1830;49.000;12.074;2023-03-14T14:15:44;10.50;99.90
3628;DHT22;1830;49.000;12.074;2023-03-14T14:18:13;10.20;99.90
3628;DHT22;1830;49.000;12.074;2023-03-14T14:20:45;10.00;99.90
3628;DHT22;1830;49.000;12.074;2023-03-14T14:23:28;9.90;99.90
3628;DHT22;1830;49.000;12.074;2023-03-14T14:26:16;9.80;99.90
3628;DHT22;1830;49.000;12.074;2023-03-14T14:32:45;9.50;99.90
3628;DHT22;1830;49.000;12.074;2023-03-14T14:35:23;9.40;99.90
3628;DHT22;1830;49.000;12.074;2023-03-14T14:37:50;9.40;99.90
3628;DHT22;1830;49.000;12.074;2023-03-14T14:40:19;9.70;99.90
3628;DHT22;1830;49.000;12.074;2023-03-14T14:42:47;9.70;99.90
3628;DHT22;1830;49.000;12.074;2023-03-14T14:45:17;9.60;99.90
3628;DHT22;1830;49.000;12.074;2023-03-14T14:47:53;9.60;99.90
3628;DHT22;1830;49.000;12.074;2023-03-14T14:50:28;9.40;99.90
3628;DHT22;1830;49.000;12.074;2023-03-14T14:53:01;9.40;99.90
3628;DHT22;1830;49.000;12.074;2023-03-14T14:55:33;9.30;99.90
3628;DHT22;1830;49.000;12.074;2023-03-14T14:58:12;9.20;99.90
3628;DHT22;1830;49.000;12.074;2023-03-14T15:00:50;9.20;99.90
3628;DHT22;1830;49.000;12.074;2023-03-14T15:03:20;9.40;99.90
3628;DHT22;1830;49.000;12.074;2023-03-14T15:05:47;9.40;99.90
3628;DHT22;1830;49.000;12.074;2023-03-14T15:08:14;9.40;99.90
3628;DHT22;1830;49.000;12.074;2023-03-14T15:10:48;9.50;99.90
3628;DHT22;1830;49.000;12.074;2023-03-14T15:13:15;9.30;99.90
3628;DHT22;1830;49.000;12.074;2023-03-14T15:15:42;9.10;99.90
3628;DHT22;1830;49.000;12.074;2023-03-14T15:18:12;9.10;99.90
3628;DHT22;1830;49.000;12.074;2023-03-14T15:20:44;9.10;99.90
3628;DHT22;1830;49.000;12.074;2023-03-14T15:23:12;9.10;99.90
3628;DHT22;1830;49.000;12.074;2023-03-14T15:25:39;9.10;99.90
3628;DHT22;1830;49.000;12.074;2023-03-14T15:28:21;9.00;99.90
3628;DHT22;1830;49.000;12.074;2023-03-14T15:30:49;8.90;99.90
3628;DHT22;1830;49.000;12.074;2023-03-14T15:33:17;8.80;99.90
3628;DHT22;1830;49.000;12.074;2023-03-14T15:35:46;8.80;99.90
3628;DHT22;1830;49.000;12.074;2023-03-14T15:38:15;9.00;99.90
3628;DHT22;1830;49.000;12.074;2023-03-14T15:40:42;9.00;99.90
3628;DHT22;1830;49.000;12.074;2023-03-14T15:43:09;8.90;99.90
3628;DHT22;1830;49.000;12.074;2023-03-14T15:45:36;8.70;99.90
3628;DHT22;1830;49.000;12.074;2023-03-14T15:48:03;8.80;99.90
3628;DHT22;1830;49.000;12.074;2023-03-14T15:50:30;8.60;99.90
3628;DHT22;1830;49.000;12.074;2023-03-14T15:52:59;8.40;99.90
3628;DHT22;1830;49.000;12.074;2023-03-14T15:55:26;8.30;99.90
3628;DHT22;1830;49.000;12.074;2023-03-14T15:57:53;8.20;99.90
3628;DHT22;1830;49.000;12.074;2023-03-14T16:00:21;8.30;99.90
3628;DHT22;1830;49.000;12.074;2023-03-14T16:02:49;8.20;99.90
3628;DHT22;1830;49.000;12.074;2023-03-14T16:05:16;8.20;99.90
3628;DHT22;1830;49.000;12.074;2023-03-14T16:07:44;8.20;99.90
3628;DHT22;1830;49.000;12.074;2023-03-14T16:10:15;8.20;99.90
3628;DHT22;1830;49.000;12.074;2023-03-14T16:12:42;8.30;99.90
3628;DHT22;1830;49.000;12.074;2023-03-14T16:15:11;8.10;99.90
3628;DHT22;1830;49.000;12.074;2023-03-14T16:17:38;7.90;99.90
3628;DHT22;1830;49.000;12.074;2023-03-14T16:20:08;7.70;99.90
3628;DHT22;1830;49.000;12.074;2023-03-14T16:22:35;7.80;99.90
3628;DHT22;1830;49.000;12.074;2023-03-14T16:25:03;8.00;99.90
3628;DHT22;1830;49.000;12.074;2023-03-14T16:27:33;7.70;99.90
3628;DHT22;1830;49.000;12.074;2023-03-14T16:30:00;7.90;99.90
3628;DHT22;1830;49.000;12.074;2023-03-14T16:32:27;7.70;99.90
3628;DHT22;1830;49.000;12.074;2023-03-14T16:34:54;7.60;99.90
3628;DHT22;1830;49.000;12.074;2023-03-14T16:37:22;7.60;99.90
3628;DHT22;1830;49.000;12.074;2023-03-14T16:39:52;7.60;99.90
3628;DHT22;1830;49.000;12.074;2023-03-14T16:42:20;7.50;99.90
3628;DHT22;1830;49.000;12.074;2023-03-14T16:44:49;7.70;99.90
3628;DHT22;1830;49.000;12.074;2023-03-14T16:47:16;7.60;99.90
3628;DHT22;1830;49.000;12.074;2023-03-14T16:49:42;7.70;99.90
3628;DHT22;1830;49.000;12.074;2023-03-14T16:52:10;7.50;99.90
3628;DHT22;1830;49.000;12.074;2023-03-14T16:54:37;7.40;99.90
3628;DHT22;1830;49.000;12.074;2023-03-14T16:57:04;7.40;99.90
3628;DHT22;1830;49.000;12.074;2023-03-14T16:59:31;7.40;99.90
3628;DHT22;1830;49.000;12.074;2023-03-14T17:01:59;7.60;99.90
3628;DHT22;1830;49.000;12.074;2023-03-14T17:04:40;7.30;99.90
3628;DHT22;1830;49.000;12.074;2023-03-14T17:07:07;7.50;99.90
3628;DHT22;1830;49.000;12.074;2023-03-14T17:09:34;7.40;99.90
3628;DHT22;1830;49.000;12.074;2023-03-14T17:12:02;7.40;99.90
3628;DHT22;1830;49.000;12.074;2023-03-14T17:14:28;7.40;99.90
3628;DHT22;1830;49.000;12.074;2023-03-14T17:16:56;7.20;99.90
3628;DHT22;1830;49.000;12.074;2023-03-14T17:19:24;7.10;99.90
3628;DHT22;1830;49.000;12.074;2023-03-14T17:21:50;7.20;99.90
3628;DHT22;1830;49.000;12.074;2023-03-14T17:24:17;7.00;99.90
3628;DHT22;1830;49.000;12.074;2023-03-14T17:26:46;7.00;99.90
3628;DHT22;1830;49.000;12.074;2023-03-14T17:29:13;7.10;99.90
3628;DHT22;1830;49.000;12.074;2023-03-14T17:31:41;7.30;99.90
3628;DHT22;1830;49.000;12.074;2023-03-14T17:34:08;7.10;99.90
3628;DHT22;1830;49.000;12.074;2023-03-14T17:36:37;7.10;99.90
3628;DHT22;1830;49.000;12.074;2023-03-14T17:39:03;6.90;99.90
3628;DHT22;1830;49.000;12.074;2023-03-14T17:41:30;6.90;99.90
3628;DHT22;1830;49.000;12.074;2023-03-14T17:43:57;7.00;99.90
3628;DHT22;1830;49.000;12.074;2023-03-14T17:46:24;6.90;99.90
3628;DHT22;1830;49.000;12.074;2023-03-14T17:48:51;7.10;99.90
3628;DHT22;1830;49.000;12.074;2023-03-14T17:51:19;7.00;99.90
3628;DHT22;1830;49.000;12.074;2023-03-14T17:53:47;7.10;99.90
3628;DHT22;1830;49.000;12.074;2023-03-14T17:56:15;7.00;99.90
3628;DHT22;1830;49.000;12.074;2023-03-14T17:58:42;7.00;99.90
3628;DHT22;1830;49.000;12.074;2023-03-14T18:01:11;7.20;99.90
3628;DHT22;1830;49.000;12.074;2023-03-14T18:03:38;7.10;99.90
3628;DHT22;1830;49.000;12.074;2023-03-14T18:06:09;6.90;99.90
3628;DHT22;1830;49.000;12.074;2023-03-14T18:09:03;7.10;99.90
3628;DHT22;1830;49.000;12.074;2023-03-14T18:11:30;6.90;99.90
3628;DHT22;1830;49.000;12.074;2023-03-14T18:13:57;6.90;99.90
3628;DHT22;1830;49.000;12.074;2023-03-14T18:16:26;6.90;99.90
3628;DHT22;1830;49.000;12.074;2023-03-14T18:18:52;6.90;99.90
3628;DHT22;1830;49.000;12.074;2023-03-14T18:21:21;6.90;99.90
3628;DHT22;1830;49.000;12.074;2023-03-14T18:23:48;6.90;99.90
3628;DHT22;1830;49.000;12.074;2023-03-14T18:26:16;6.80;99.90
3628;DHT22;1830;49.000;12.074;2023-03-14T18:28:43;6.70;99.90
3628;DHT22;1830;49.000;12.074;2023-03-14T18:31:12;6.80;99.90
3628;DHT22;1830;49.000;12.074;2023-03-14T18:33:40;6.70;99.90
3628;DHT22;1830;49.000;12.074;2023-03-14T18:36:10;6.70;99.90
3628;DHT22;1830;49.000;12.074;2023-03-14T18:38:38;6.70;99.90
3628;DHT22;1830;49.000;12.074;2023-03-14T18:41:08;6.60;99.90
3628;DHT22;1830;49.000;12.074;2023-03-14T18:43:36;6.60;99.90
3628;DHT22;1830;49.000;12.074;2023-03-14T18:46:04;6.70;99.90
3628;DHT22;1830;49.000;12.074;2023-03-14T18:48:31;6.70;99.90
3628;DHT22;1830;49.000;12.074;2023-03-14T18:50:58;6.60;99.90
3628;DHT22;1830;49.000;12.074;2023-03-14T18:53:25;6.70;99.90
3628;DHT22;1830;49.000;12.074;2023-03-14T18:55:56;6.60;99.90
3628;DHT22;1830;49.000;12.074;2023-03-14T18:58:28;6.60;99.90
3628;DHT22;1830;49.000;12.074;2023-03-14T19:00:57;6.50;99.90
3628;DHT22;1830;49.000;12.074;2023-03-14T19:03:24;6.60;99.90
3628;DHT22;1830;49.000;12.074;2023-03-14T19:05:51;6.50;99.90
3628;DHT22;1830;49.000;12.074;2023-03-14T19:08:19;6.50;99.90
3628;DHT22;1830;49.000;12.074;2023-03-14T19:10:48;6.50;99.90
3628;DHT22;1830;49.000;12.074;2023-03-14T19:13:15;6.60;99.90
3628;DHT22;1830;49.000;12.074;2023-03-14T19:15:42;6.50;99.90
3628;DHT22;1830;49.000;12.074;2023-03-14T19:18:12;6.40;99.90
3628;DHT22;1830;49.000;12.074;2023-03-14T19:20:40;6.50;99.90
3628;DHT22;1830;49.000;12.074;2023-03-14T19:23:07;6.40;99.90
3628;DHT22;1830;49.000;12.074;2023-03-14T19:25:34;6.20;99.90
3628;DHT22;1830;49.000;12.074;2023-03-14T19:28:01;6.30;99.90
3628;DHT22;1830;49.000;12.074;2023-03-14T19:30:28;6.30;99.90
3628;DHT22;1830;49.000;12.074;2023-03-14T19:32:56;6.20;99.90
3628;DHT22;1830;49.000;12.074;2023-03-14T19:35:24;6.20;99.90
3628;DHT22;1830;49.000;12.074;2023-03-14T19:37:51;6.30;99.90
3628;DHT22;1830;49.000;12.074;2023-03-14T19:40:18;6.30;99.90
3628;DHT22;1830;49.000;12.074;2023-03-14T19:42:45;6.50;99.90
3628;DHT22;1830;49.000;12.074;2023-03-14T19:45:12;6.40;99.90
3628;DHT22;1830;49.000;12.074;2023-03-14T19:47:39;6.30;99.90
3628;DHT22;1830;49.000;12.074;2023-03-14T19:50:06;6.20;99.90
3628;DHT22;1830;49.000;12.074;2023-03-14T19:52:35;6.20;99.90
3628;DHT22;1830;49.000;12.074;2023-03-14T19:55:04;6.30;99.90
3628;DHT22;1830;49.000;12.074;2023-03-14T19:57:31;6.20;99.90
3628;DHT22;1830;49.000;12.074;2023-03-14T19:59:57;6.20;99.90
3628;DHT22;1830;49.000;12.074;2023-03-14T20:02:24;6.20;99.90
3628;DHT22;1830;49.000;12.074;2023-03-14T20:04:51;6.20;99.90
3628;DHT22;1830;49.000;12.074;2023-03-14T20:07:19;6.30;99.90
3628;DHT22;1830;49.000;12.074;2023-03-14T20:09:47;6.40;99.90
3628;DHT22;1830;49.000;12.074;2023-03-14T20:12:14;6.30;99.90
3628;DHT22;1830;49.000;12.074;2023-03-14T20:14:41;6.30;99.90
3628;DHT22;1830;49.000;12.074;2023-03-14T20:17:08;6.10;99.90
3628;DHT22;1830;49.000;12.074;2023-03-14T20:19:36;6.20;99.90
3628;DHT22;1830;49.000;12.074;2023-03-14T20:22:04;6.00;99.90
3628;DHT22;1830;49.000;12.074;2023-03-14T20:24:30;6.10;99.90